.
WxDataArchive / Data Records for 2006-08-27
2006-08-26 August 2006 2006-08-28

Data Records for Sunday, 27 August 2006

Time	Temp	Chill	HIndex	Humid	Dewpt	 Wind 	HiWind	WindDir	Rain 	Barom 
-----	----	-----	------	-----	-----	------	------	-------	-----	----- 
00:00	71.1	71.1	71.1	95	69.6	0	2	315	0.00	29.885 
00:05	71.1	71.1	71.1	95	69.6	1	3	22	0.00	29.885 
00:10	71.1	71.1	71.1	95	69.6	1	3	22	0.00	29.885 
00:15	71.1	71.1	71.1	95	69.6	1	3	45	0.00	29.878 
00:20	71.1	71.1	71.1	95	69.6	1	3	45	0.00	29.878 
00:25	71.1	71.1	71.1	95	69.6	2	4	45	0.00	29.878 
00:30	70.9	70.9	70.9	95	69.4	1	2	90	0.00	29.871 
00:35	70.9	70.9	70.9	95	69.4	1	3	68	0.00	29.871 
00:40	70.9	70.9	70.9	95	69.4	1	3	68	0.00	29.871 
00:45	70.9	70.9	70.9	95	69.4	2	4	68	0.00	29.868 
00:50	70.8	70.8	70.8	95	69.3	1	3	90	0.00	29.868 
00:55	70.8	70.8	70.8	95	69.3	0	2	90	0.00	29.868 
01:00	70.8	70.8	70.8	95	69.3	1	3	90	0.00	29.870 
01:05	70.8	70.8	70.8	95	69.3	1	3	90	0.00	29.870 
01:10	70.8	70.8	70.8	95	69.3	2	4	90	0.00	29.870 
01:15	70.8	70.8	70.8	95	69.3	1	3	90	0.00	29.871 
01:20	70.8	70.8	70.8	95	69.3	0	2	90	0.00	29.871 
01:25	70.8	70.8	70.8	95	69.3	0	2	90	0.00	29.871 
01:30	70.8	70.8	70.8	95	69.3	0	1	90	0.00	29.877 
01:35	70.8	70.8	70.8	95	69.3	1	2	90	0.01	29.877 
01:40	70.8	70.8	70.8	95	69.3	1	3	112	0.00	29.877 
01:45	70.6	70.6	70.6	95	69.1	2	3	90	0.00	29.872 
01:50	70.6	70.6	70.6	95	69.1	1	3	112	0.00	29.872 
01:55	70.4	70.4	70.4	95	68.9	1	4	90	0.00	29.872 
02:00	70.4	70.4	70.4	95	68.9	1	2	90	0.00	29.858 
02:05	70.4	70.4	70.4	95	68.9	1	3	90	0.01	29.858 
02:10	70.4	70.4	70.4	95	68.9	0	1	90	0.01	29.858 
02:15	70.4	70.4	70.4	95	68.9	1	3	90	0.01	29.860 
02:20	70.4	70.4	70.4	95	68.9	1	3	90	0.01	29.860 
02:25	70.3	70.3	70.3	95	68.8	1	3	90	0.03	29.860 
02:30	70.3	70.3	70.3	95	68.8	0	2	90	0.01	29.864 
02:35	70.3	70.3	70.3	96	69.1	0	3	90	0.03	29.864 
02:40	70.3	70.3	70.3	95	68.8	1	2	90	0.05	29.864 
02:45	70.3	70.3	70.3	96	69.1	1	2	112	0.01	29.855 
02:50	70.3	70.3	70.3	96	69.1	1	2	112	0.01	29.855 
02:55	70.3	70.3	70.3	96	69.1	1	3	135	0.00	29.855 
03:00	70.3	70.3	70.3	96	69.1	1	2	135	0.01	29.845 
03:05	70.3	70.3	70.3	96	69.1	1	3	135	0.00	29.845 
03:10	70.3	70.3	70.3	96	69.1	1	3	112	0.00	29.845 
03:15	70.3	70.3	70.3	96	69.1	1	2	112	0.00	29.841 
03:20	70.3	70.3	70.3	96	69.1	1	3	90	0.00	29.841 
03:25	70.4	70.4	70.4	96	69.2	0	2	45	0.00	29.841 
03:30	70.4	70.4	70.4	96	69.2	0	2	45	0.00	29.843 
03:35	70.4	70.4	70.4	96	69.2	1	3	90	0.00	29.843 
03:40	70.6	70.6	70.6	96	69.4	1	3	135	0.00	29.843 
03:45	70.6	70.6	70.6	96	69.4	0	2	135	0.00	29.837 
03:50	70.6	70.6	70.6	96	69.4	1	3	90	0.00	29.837 
03:55	70.6	70.6	70.6	96	69.4	0	2	90	0.00	29.837 
04:00	70.6	70.6	70.6	96	69.4	0	2	90	0.00	29.840 
04:05	70.8	70.8	70.8	96	69.6	0	1	90	0.00	29.840 
04:10	70.8	70.8	70.8	96	69.6	0	1	45	0.00	29.840 
04:15	70.8	70.8	70.8	96	69.6	0	1	45	0.00	29.839 
04:20	70.8	70.8	70.8	96	69.6	0	1	45	0.00	29.839 
04:25	70.8	70.8	70.8	96	69.6	0	1	45	0.00	29.839 
04:30	70.8	70.8	70.8	96	69.6	0	2	45	0.00	29.838 
04:35	70.8	70.8	70.8	96	69.6	0	2	22	0.00	29.838 
04:40	70.6	70.6	70.6	96	69.4	0	1	22	0.00	29.838 
04:45	70.6	70.6	70.6	96	69.4	0	2	22	0.00	29.832 
04:50	70.6	70.6	70.6	96	69.4	0	3	270	0.00	29.832 
04:55	70.8	70.8	70.8	96	69.6	0	1	270	0.00	29.832 
05:00	70.8	70.8	70.8	96	69.6	0	2	270	0.00	29.831 
05:05	70.8	70.8	70.8	96	69.6	1	3	248	0.00	29.831 
05:10	70.8	70.8	70.8	96	69.6	1	3	248	0.00	29.831 
05:15	70.8	70.8	70.8	96	69.6	1	3	270	0.00	29.830 
05:20	70.8	70.8	70.8	96	69.6	1	4	248	0.00	29.830 
05:25	70.8	70.8	70.8	96	69.6	1	3	248	0.00	29.830 
05:30	70.8	70.8	70.8	96	69.6	1	5	248	0.00	29.833 
05:35	70.8	70.8	70.8	96	69.6	1	3	248	0.00	29.833 
05:40	70.8	70.8	70.8	96	69.6	1	2	248	0.00	29.833 
05:45	70.8	70.8	70.8	96	69.6	1	2	248	0.00	29.839 
05:50	70.8	70.8	70.8	96	69.6	1	3	248	0.00	29.839 
05:55	70.6	70.6	70.6	96	69.4	1	2	248	0.00	29.839 
06:00	70.4	70.4	70.4	96	69.2	1	4	248	0.00	29.843 
06:05	70.4	70.4	70.4	96	69.2	0	3	225	0.00	29.843 
06:10	70.3	70.3	70.3	96	69.1	1	2	248	0.00	29.843 
06:15	70.3	70.3	70.3	96	69.1	1	3	248	0.00	29.843 
06:20	70.3	70.3	70.3	96	69.1	1	2	248	0.00	29.843 
06:25	70.3	70.3	70.3	96	69.1	1	3	248	0.00	29.843 
06:30	70.4	70.4	70.4	96	69.2	1	3	248	0.00	29.846 
06:35	70.4	70.4	70.4	96	69.2	1	4	248	0.00	29.846 
06:40	70.4	70.4	70.4	96	69.2	1	2	248	0.00	29.846 
06:45	70.4	70.4	70.4	96	69.2	1	2	248	0.00	29.845 
06:50	70.4	70.4	70.4	96	69.2	1	2	248	0.00	29.845 
06:55	70.4	70.4	70.4	96	69.2	1	2	248	0.00	29.845 
07:00	70.4	70.4	70.4	96	69.2	1	2	248	0.00	29.846 
07:05	70.4	70.4	70.4	96	69.2	1	3	248	0.00	29.846 
07:10	70.4	70.4	70.4	96	69.2	1	2	248	0.00	29.846 
07:15	70.4	70.4	70.4	96	69.2	1	3	248	0.00	29.861 
07:20	70.4	70.4	70.4	96	69.2	0	2	248	0.00	29.861 
07:25	70.4	70.4	70.4	96	69.2	0	2	248	0.00	29.861 
07:30	70.4	70.4	70.4	96	69.2	0	2	248	0.00	29.868 
07:35	70.4	70.4	70.4	96	69.2	0	2	248	0.00	29.868 
07:40	70.4	70.4	70.4	96	69.2	1	2	292	0.00	29.868 
07:45	70.4	70.4	70.4	96	69.2	1	2	292	0.00	29.875 
07:50	70.6	70.6	70.6	96	69.4	1	3	292	0.00	29.875 
07:55	70.6	70.6	70.6	96	69.4	1	2	270	0.00	29.875 
08:00	70.6	70.6	70.6	95	69.1	0	2	292	0.00	29.878 
08:05	70.6	70.6	70.6	95	69.1	1	3	292	0.00	29.878 
08:10	70.8	70.8	70.8	95	69.3	0	2	292	0.00	29.878 
08:15	70.6	70.6	70.6	95	69.1	0	2	292	0.00	29.882 
08:20	70.8	70.8	70.8	95	69.3	0	2	292	0.00	29.882 
08:25	70.8	70.8	70.8	95	69.3	0	2	292	0.00	29.882 
08:30	70.8	70.8	70.8	95	69.3	0	2	292	0.00	29.884 
08:35	70.9	70.9	70.9	95	69.4	0	2	248	0.00	29.884 
08:40	71.1	71.1	71.1	95	69.6	1	3	248	0.00	29.884 
08:45	71.3	71.3	71.3	94	69.5	1	2	248	0.00	29.892 
08:50	71.6	71.6	71.6	94	69.8	0	1	248	0.00	29.892 
08:55	71.8	71.8	71.8	93	69.7	1	3	270	0.00	29.892 
09:00	71.8	71.8	71.8	92	69.3	1	2	270	0.00	29.894 
09:05	71.6	71.6	71.6	92	69.1	1	2	270	0.00	29.894 
09:10	71.8	71.8	71.8	92	69.3	1	3	270	0.00	29.894 
09:15	71.8	71.8	71.8	92	69.3	0	2	270	0.00	29.897 
09:20	72.0	72.0	72.0	92	69.5	0	1	270	0.00	29.897 
09:25	72.0	72.0	72.0	91	69.2	0	2	270	0.00	29.897 
09:30	72.1	72.1	72.1	91	69.3	0	2	270	0.00	29.895 
09:35	72.1	72.1	72.1	89	68.7	1	2	292	0.00	29.895 
09:40	72.5	72.5	72.5	89	69.1	0	1	315	0.00	29.895 
09:45	72.7	72.7	72.7	89	69.3	0	2	315	0.00	29.897 
09:50	73.2	73.2	73.2	88	69.4	1	3	270	0.00	29.897 
09:55	73.7	73.7	73.7	88	69.9	1	3	248	0.00	29.897 
10:00	73.9	73.9	73.9	85	69.1	1	3	315	0.00	29.898 
10:05	73.7	73.7	73.7	85	68.9	1	5	315	0.00	29.898 
10:10	73.5	73.5	73.5	85	68.7	1	3	248	0.00	29.898 
10:15	73.5	73.5	73.5	85	68.7	1	3	315	0.00	29.900 
10:20	73.9	73.9	73.9	85	69.1	1	3	292	0.00	29.900 
10:25	74.6	74.6	74.6	83	69.1	0	2	315	0.00	29.900 
10:30	74.9	74.9	74.9	83	69.4	0	3	315	0.00	29.904 
10:35	75.3	75.3	75.6	83	69.8	0	2	292	0.00	29.904 
10:40	75.6	75.6	76.2	82	69.7	0	2	338	0.00	29.904 
10:45	76.0	76.0	77.0	80	69.4	1	3	270	0.00	29.908 
10:50	76.1	76.1	77.1	81	69.8	0	3	248	0.00	29.908 
10:55	76.0	76.0	76.9	81	69.7	0	2	248	0.00	29.908 
11:00	76.1	76.1	77.1	80	69.5	1	2	292	0.00	29.909 
11:05	76.5	76.5	77.8	79	69.5	1	2	315	0.00	29.909 
11:10	76.5	76.5	77.9	78	69.1	1	3	292	0.00	29.909 
11:15	76.3	76.3	77.6	78	68.9	1	2	292	0.00	29.910 
11:20	76.5	76.5	77.8	80	69.9	0	1	292	0.00	29.910 
11:25	76.8	76.8	78.3	78	69.4	0	2	292	0.00	29.910 
11:30	77.2	77.2	79.0	76	69.0	2	4	292	0.00	29.909 
11:35	77.4	77.4	79.3	76	69.2	1	4	315	0.00	29.909 
11:40	77.7	77.7	79.7	76	69.5	1	2	270	0.00	29.909 
11:45	78.3	78.3	80.6	74	69.3	0	2	315	0.00	29.918 
11:50	78.5	78.5	80.9	74	69.5	2	3	292	0.00	29.918 
11:55	79.0	79.0	81.6	72	69.2	1	2	248	0.00	29.918 
12:00	78.8	78.8	81.3	72	69.0	1	2	338	0.00	29.920 
12:05	79.0	79.0	81.6	72	69.2	1	2	338	0.00	29.920 
12:10	78.6	78.6	81.0	73	69.2	1	2	315	0.00	29.920 
12:15	78.5	78.5	80.9	73	69.1	1	4	270	0.00	29.922 
12:20	79.4	79.4	81.9	69	68.3	1	3	315	0.00	29.922 
12:25	79.8	79.8	82.5	69	68.7	1	3	315	0.00	29.922 
12:30	79.9	79.9	82.7	69	68.8	1	2	315	0.00	29.921 
12:35	79.9	79.9	82.8	70	69.2	1	3	292	0.00	29.921 
12:40	79.2	79.2	81.9	72	69.4	0	2	0	0.00	29.921 
12:45	78.8	78.8	81.4	74	69.8	0	1	0	0.00	29.918 
12:50	79.0	79.0	81.5	71	68.8	0	1	0	0.00	29.918 
12:55	79.9	79.9	82.9	71	69.6	1	3	270	0.00	29.918 
13:00	80.5	80.5	83.3	67	68.5	1	3	292	0.00	29.916 
13:05	80.9	80.9	84.1	68	69.3	1	4	270	0.00	29.916 
13:10	80.9	80.9	84.5	70	70.2	1	2	270	0.00	29.916 
13:15	81.1	81.1	84.3	67	69.1	2	5	292	0.00	29.917 
13:20	81.4	81.4	84.4	65	68.5	1	3	270	0.00	29.917 
13:25	81.8	81.8	85.1	65	68.9	1	2	0	0.00	29.917 
13:30	81.4	81.4	84.8	67	69.4	1	3	270	0.00	29.913 
13:35	82.0	82.0	85.6	66	69.5	2	4	270	0.00	29.913 
13:40	82.4	82.4	86.5	67	70.3	2	4	270	0.00	29.913 
13:45	82.6	82.6	86.2	64	69.2	2	4	270	0.00	29.904 
13:50	82.4	82.4	85.8	64	69.0	2	4	270	0.00	29.904 
13:55	82.6	82.6	85.9	63	68.7	2	3	270	0.00	29.904 
14:00	82.2	82.2	85.5	64	68.8	2	4	248	0.00	29.903 
14:05	82.0	82.0	85.2	64	68.6	1	6	270	0.00	29.903 
14:10	81.6	81.6	84.6	64	68.2	0	2	270	0.00	29.903 
14:15	80.9	80.9	84.0	67	68.9	0	2	270	0.00	29.906 
14:20	80.1	80.1	83.1	70	69.4	0	2	315	0.00	29.906 
14:25	80.1	80.1	83.2	71	69.8	1	3	315	0.00	29.906 
14:30	80.3	80.3	83.0	67	68.3	0	2	135	0.00	29.905 
14:35	80.3	80.3	82.9	66	67.9	0	1	135	0.00	29.905 
14:40	80.5	80.5	83.3	67	68.5	0	1	135	0.00	29.905 
14:45	80.7	80.7	83.7	67	68.7	1	2	292	0.00	29.904 
14:50	81.1	81.1	84.6	69	69.9	0	2	270	0.00	29.904 
14:55	80.9	80.9	83.8	66	68.4	1	4	270	0.00	29.904 
15:00	80.3	80.3	83.3	69	69.2	0	2	270	0.00	29.903 
15:05	80.1	80.1	83.4	72	70.2	0	2	270	0.00	29.903 
15:10	80.5	80.5	83.5	68	68.9	0	2	270	0.00	29.903 
15:15	80.7	80.7	84.0	69	69.6	0	1	270	0.00	29.897 
15:20	80.9	80.9	84.1	68	69.3	0	2	292	0.00	29.897 
15:25	81.4	81.4	85.0	68	69.8	1	2	292	0.00	29.897 
15:30	81.8	81.8	84.9	64	68.4	0	3	22	0.00	29.888 
15:35	81.8	81.8	85.3	66	69.3	0	2	22	0.00	29.888 
15:40	81.6	81.6	85.3	68	70.0	0	1	22	0.00	29.888 
15:45	81.4	81.4	84.8	67	69.4	0	2	22	0.00	29.886 
15:50	81.2	81.2	84.5	67	69.2	0	3	45	0.00	29.886 
15:55	81.4	81.4	85.3	70	70.7	0	1	45	0.00	29.886 
16:00	81.6	81.6	85.1	67	69.6	0	2	22	0.00	29.884 
16:05	81.8	81.8	85.7	68	70.2	0	2	22	0.00	29.884 
16:10	82.0	82.0	85.4	65	69.0	0	2	22	0.00	29.884 
16:15	82.2	82.2	85.9	66	69.7	0	2	0	0.00	29.882 
16:20	82.0	82.0	85.2	64	68.6	1	4	135	0.00	29.882 
16:25	82.0	82.0	85.6	66	69.5	1	3	135	0.00	29.882 
16:30	82.4	82.4	86.5	67	70.3	0	2	68	0.00	29.880 
16:35	82.6	82.6	85.7	62	68.2	0	2	68	0.00	29.880 
16:40	82.8	82.8	86.1	62	68.4	1	4	68	0.00	29.880 
16:45	83.0	83.0	87.3	66	70.4	1	3	0	0.00	29.873 
16:50	83.0	83.0	86.6	63	69.1	1	3	90	0.00	29.873 
16:55	82.8	82.8	87.0	66	70.3	0	3	90	0.00	29.873 
17:00	82.6	82.6	86.2	64	69.2	1	2	90	0.00	29.877 
17:05	82.4	82.4	85.4	62	68.0	1	2	68	0.00	29.877 
17:10	82.4	82.4	85.4	62	68.0	0	2	0	0.00	29.877 
17:15	82.6	82.6	85.9	63	68.7	0	3	0	0.00	29.884 
17:20	82.2	82.2	85.1	62	67.9	0	1	45	0.00	29.884 
17:25	81.6	81.6	84.2	62	67.3	0	1	45	0.00	29.884 
17:30	81.2	81.2	83.8	63	67.4	0	1	45	0.00	29.888 
17:35	81.1	81.1	83.6	63	67.3	0	1	45	0.00	29.888 
17:40	81.2	81.2	84.0	64	67.8	0	1	45	0.00	29.888 
17:45	81.2	81.2	84.3	66	68.7	0	3	45	0.00	29.889 
17:50	81.2	81.2	84.1	65	68.3	0	1	45	0.00	29.889 
17:55	81.2	81.2	84.5	67	69.2	1	6	45	0.00	29.889 
18:00	80.9	80.9	84.5	70	70.2	1	5	135	0.00	29.893 
18:05	80.5	80.5	83.9	71	70.2	0	1	112	0.00	29.893 
18:10	80.1	80.1	83.2	71	69.8	0	1	112	0.00	29.893 
18:15	79.8	79.8	82.9	72	69.9	0	1	112	0.00	29.897 
18:20	79.4	79.4	82.2	72	69.6	0	1	112	0.00	29.897 
18:25	79.2	79.2	82.0	73	69.8	0	1	112	0.00	29.897 
18:30	79.0	79.0	81.6	73	69.6	0	1	112	0.00	29.895 
18:35	78.8	78.8	81.3	73	69.4	0	1	112	0.00	29.895 
18:40	78.8	78.8	81.3	72	69.0	0	2	112	0.00	29.895 
18:45	78.8	78.8	81.3	72	69.0	0	2	112	0.00	29.893 
18:50	78.8	78.8	81.2	71	68.6	1	3	90	0.00	29.893 
18:55	78.8	78.8	81.3	72	69.0	0	2	90	0.00	29.893 
19:00	78.8	78.8	81.3	73	69.4	0	1	90	0.00	29.903 
19:05	78.8	78.8	81.3	73	69.4	0	1	68	0.00	29.903 
19:10	78.6	78.6	81.0	73	69.2	0	2	68	0.00	29.903 
19:15	78.5	78.5	80.9	73	69.1	0	2	68	0.00	29.892 
19:20	78.3	78.3	80.6	73	68.9	0	3	68	0.00	29.892 
19:25	78.3	78.3	80.6	73	68.9	0	2	68	0.00	29.892 
19:30	78.1	78.1	80.3	75	69.5	0	1	68	0.00	29.895 
19:35	78.1	78.1	80.3	75	69.5	0	2	68	0.00	29.895 
19:40	77.9	77.9	80.0	76	69.7	0	2	68	0.00	29.895 
19:45	77.7	77.7	79.7	75	69.1	1	2	68	0.00	29.889 
19:50	77.6	77.6	79.6	75	69.0	1	4	68	0.00	29.889 
19:55	77.4	77.4	79.3	75	68.8	1	3	112	0.00	29.889 
20:00	77.2	77.2	79.0	76	69.0	0	2	68	0.00	29.891 
20:05	77.0	77.0	78.7	76	68.8	1	2	90	0.00	29.891 
20:10	76.8	76.8	78.4	77	69.0	1	3	90	0.00	29.891 
20:15	76.7	76.7	78.2	77	68.9	1	3	90	0.00	29.891 
20:20	76.5	76.5	77.9	77	68.7	1	3	90	0.00	29.891 
20:25	76.5	76.5	77.9	78	69.1	0	2	90	0.00	29.891 
20:30	76.3	76.3	77.6	78	68.9	1	2	90	0.00	29.892 
20:35	76.1	76.1	77.3	78	68.7	1	3	90	0.00	29.892 
20:40	76.1	76.1	77.2	79	69.1	1	3	90	0.00	29.892 
20:45	76.0	76.0	77.1	79	69.0	1	2	90	0.00	29.897 
20:50	75.8	75.8	76.8	79	68.8	1	2	90	0.00	29.897 
20:55	75.8	75.8	76.8	79	68.8	1	4	90	0.00	29.897 
21:00	75.6	75.6	76.4	80	69.0	1	3	90	0.00	29.907 
21:05	75.4	75.4	76.1	80	68.8	1	2	90	0.00	29.907 
21:10	75.4	75.4	76.0	81	69.1	1	2	90	0.00	29.907 
21:15	75.3	75.3	75.9	81	69.1	1	3	90	0.00	29.910 
21:20	75.1	75.1	75.5	82	69.2	1	4	90	0.00	29.910 
21:25	74.9	74.9	74.9	83	69.4	1	3	68	0.00	29.910 
21:30	74.9	74.9	74.9	83	69.4	1	3	68	0.00	29.906 
21:35	74.7	74.7	74.7	84	69.5	1	3	68	0.00	29.906 
21:40	74.6	74.6	74.6	84	69.4	0	2	68	0.00	29.906 
21:45	74.6	74.6	74.6	84	69.4	0	1	68	0.00	29.915 
21:50	74.4	74.4	74.4	84	69.2	0	1	68	0.00	29.915 
21:55	74.4	74.4	74.4	84	69.2	0	1	68	0.00	29.915 
22:00	74.2	74.2	74.2	85	69.4	0	0	---	0.00	29.918 
22:05	74.2	74.2	74.2	85	69.4	0	2	68	0.00	29.918 
22:10	74.2	74.2	74.2	85	69.4	0	2	68	0.00	29.918 
22:15	74.0	74.0	74.0	85	69.2	0	2	68	0.00	29.919 
22:20	74.0	74.0	74.0	85	69.2	0	1	68	0.00	29.919 
22:25	74.0	74.0	74.0	85	69.2	0	1	68	0.00	29.919 
22:30	74.0	74.0	74.0	85	69.2	0	2	68	0.00	29.918 
22:35	73.9	73.9	73.9	85	69.1	0	2	68	0.00	29.918 
22:40	73.9	73.9	73.9	85	69.1	0	1	68	0.00	29.918 
22:45	73.7	73.7	73.7	85	68.9	0	0	---	0.00	29.920 
22:50	73.7	73.7	73.7	86	69.2	0	0	---	0.00	29.920 
22:55	73.5	73.5	73.5	86	69.0	0	0	---	0.00	29.920 
23:00	73.3	73.3	73.3	86	68.8	0	1	68	0.00	29.921 
23:05	73.3	73.3	73.3	86	68.8	1	2	68	0.00	29.921 
23:10	73.2	73.2	73.2	87	69.1	0	1	68	0.00	29.921 
23:15	73.2	73.2	73.2	87	69.1	0	2	68	0.00	29.922 
23:20	73.0	73.0	73.0	87	68.9	0	2	68	0.00	29.922 
23:25	73.0	73.0	73.0	87	68.9	0	1	68	0.00	29.922 
23:30	73.0	73.0	73.0	88	69.2	0	1	68	0.00	29.926 
23:35	72.8	72.8	72.8	88	69.0	0	1	68	0.00	29.926 
23:40	72.7	72.7	72.7	88	68.9	0	0	---	0.00	29.926 
23:45	72.7	72.7	72.7	88	68.9	0	0	---	0.00	29.921 
23:50	72.5	72.5	72.5	88	68.7	0	2	68	0.00	29.921 
23:55	72.5	72.5	72.5	88	68.7	0	1	68	0.00	29.921 

CoCoRaHS
IN-AL-39
A2 Web Hosting
Creative Commons License
GoDaddy
Look for:

loaded 2017-12-13 02:37:46 • last modified 2010-11-18 10:43:29
Privacy PolicyDisclaimer
• wx.awcolley.com is powered by PmWiki v.2002016 •
• all content (unless otherwise noted) © 2017 A W Colley